Time;durP1;ratioP1;P1;durP2;ratioP2;P2;SDS_P1;SDS_P2;PMS_P1;PMS_P2;Temp;Humidity;BMP_temperature;BMP_pressure;BME280_temperature;BME280_humidity;BME280_pressure;Samples;Min_cycle;Max_cycle;Signal;HPM_P1;HPM_P2
2023/03/09 00:01:20;;;;;;;27.50;10.70;;;;;;;-6.69;85.84;98152.73;109666;1251;61376;-76
2023/03/09 00:04:14;;;;;;;24.90;9.80;;;;;;;-6.68;86.15;98151.31;109354;1251;72117;-76
2023/03/09 00:07:00;;;;;;;25.00;9.00;;;;;;;-6.65;86.05;98148.42;109479;1251;68906;-74
2023/03/09 00:09:48;;;;;;;24.00;9.50;;;;;;;-6.61;86.16;98146.73;109646;1251;72547;-75
2023/03/09 00:12:34;;;;;;;24.20;9.20;;;;;;;-6.51;86.45;98139.61;109623;1251;58702;-75
2023/03/09 00:15:20;;;;;;;26.30;10.20;;;;;;;-6.44;85.89;98141.09;109547;1251;60239;-74
2023/03/09 00:18:07;;;;;;;25.40;10.60;;;;;;;-6.37;85.75;98137.86;109674;1251;72127;-75
2023/03/09 00:20:54;;;;;;;28.90;10.80;;;;;;;-6.32;85.58;98135.27;109662;1251;67963;-75
2023/03/09 00:23:42;;;;;;;33.40;12.00;;;;;;;-6.33;84.81;98138.90;109606;1251;70637;-75
2023/03/09 00:26:29;;;;;;;35.00;12.30;;;;;;;-6.36;84.61;98136.24;108875;1251;1002335;-75
2023/03/09 00:29:16;;;;;;;30.20;11.70;;;;;;;-6.40;84.69;98137.80;108707;1251;1002082;-75
2023/03/09 00:32:03;;;;;;;30.10;11.40;;;;;;;-6.44;84.78;98138.83;108758;1251;1002275;-75
2023/03/09 00:34:51;;;;;;;30.80;11.70;;;;;;;-6.47;84.51;98135.52;109693;1251;67783;-76
2023/03/09 00:37:38;;;;;;;33.00;11.40;;;;;;;-6.53;84.33;98135.90;109629;1251;71836;-76
2023/03/09 00:40:26;;;;;;;21.80;8.30;;;;;;;-6.59;83.99;98137.70;109498;1251;57324;-75
2023/03/09 00:43:12;;;;;;;26.30;10.50;;;;;;;-6.68;84.47;98139.56;108921;1251;1002116;-75
2023/03/09 00:45:59;;;;;;;25.10;10.70;;;;;;;-6.73;84.54;98141.34;109679;1251;70668;-76
2023/03/09 00:48:46;;;;;;;26.70;10.50;;;;;;;-6.78;84.63;98140.31;108863;1251;1002367;-74
2023/03/09 00:51:36;;;;;;;30.00;11.10;;;;;;;-6.84;84.70;98135.89;109637;1251;72343;-75
2023/03/09 00:54:23;;;;;;;31.70;11.80;;;;;;;-6.88;85.06;98138.60;108826;1251;1002991;-76
2023/03/09 00:57:10;;;;;;;33.30;11.90;;;;;;;-6.87;85.03;98135.31;109670;1251;60210;-75
2023/03/09 00:59:57;;;;;;;33.40;11.80;;;;;;;-6.85;85.25;98134.35;109741;1250;72089;-73
2023/03/09 01:02:44;;;;;;;28.30;11.20;;;;;;;-6.80;85.23;98134.19;109654;1251;67668;-73
2023/03/09 01:05:31;;;;;;;34.20;11.80;;;;;;;-6.75;85.04;98133.29;108896;1254;1002402;-74
2023/03/09 01:08:17;;;;;;;37.20;11.70;;;;;;;-6.69;84.85;98133.40;109767;1251;57483;-75
2023/03/09 01:11:10;;;;;;;26.50;10.40;;;;;;;-6.61;85.37;98128.79;109761;1251;60154;-74
2023/03/09 01:13:56;;;;;;;26.00;9.50;;;;;;;-6.52;84.94;98126.37;109660;1251;72077;-74
2023/03/09 01:16:43;;;;;;;23.80;8.70;;;;;;;-6.45;84.65;98128.86;109666;1251;67720;-74
2023/03/09 01:19:30;;;;;;;20.70;8.20;;;;;;;-6.43;84.15;98130.85;108801;1251;1002373;-74
2023/03/09 01:22:20;;;;;;;20.60;7.90;;;;;;;-6.47;84.40;98127.38;109596;1251;57235;-75
2023/03/09 01:25:07;;;;;;;22.50;7.50;;;;;;;-6.47;84.29;98125.00;109765;1251;60458;-74
2023/03/09 01:27:54;;;;;;;23.10;7.20;;;;;;;-6.49;84.44;98126.94;108962;1250;1002821;-75
2023/03/09 01:30:40;;;;;;;22.00;6.80;;;;;;;-6.52;84.02;98127.42;108972;1250;1002874;-73
2023/03/09 01:33:27;;;;;;;18.80;6.00;;;;;;;-6.58;83.60;98127.46;109657;1251;72769;-74
2023/03/09 01:36:17;;;;;;;16.00;5.90;;;;;;;-6.64;83.66;98131.14;109614;1251;56966;-74
2023/03/09 01:39:04;;;;;;;14.50;4.70;;;;;;;-6.70;83.91;98137.05;109672;1251;60047;-74
2023/03/09 01:41:50;;;;;;;12.00;4.20;;;;;;;-6.74;84.27;98135.00;109755;1250;72111;-75
2023/03/09 01:44:37;;;;;;;13.70;3.90;;;;;;;-6.78;84.85;98136.00;108894;1251;1002429;-76
2023/03/09 01:47:24;;;;;;;12.50;4.30;;;;;;;-6.83;85.16;98133.61;109680;1251;71885;-74
2023/03/09 01:50:12;;;;;;;14.60;5.10;;;;;;;-6.84;85.00;98131.76;109686;1250;59460;-76
2023/03/09 01:53:10;;;;;;;13.20;5.40;;;;;;;-6.83;85.21;98130.69;109647;1251;59963;-76
2023/03/09 01:55:58;;;;;;;13.30;4.40;;;;;;;-6.81;85.20;98131.80;109710;1250;70623;-77
2023/03/09 01:58:48;;;;;;;15.70;5.10;;;;;;;-6.79;85.00;98126.90;108921;1251;1002413;-77
2023/03/09 02:01:36;;;;;;;18.20;4.10;;;;;;;-6.77;85.11;98126.66;109677;1251;72768;-77
2023/03/09 02:04:32;;;;;;;17.70;5.80;;;;;;;-6.77;85.14;98125.59;109546;1250;56938;-75
2023/03/09 02:07:22;;;;;;;16.30;5.80;;;;;;;-6.78;84.24;98129.29;109559;1251;60232;-76
2023/03/09 02:10:32;;;;;;;11.50;4.50;;;;;;;-6.82;84.60;98128.90;109586;1251;70981;-75
2023/03/09 02:13:28;;;;;;;14.90;4.30;;;;;;;-6.85;84.51;98129.52;108999;1251;1002374;-74
2023/03/09 02:16:15;;;;;;;13.70;3.90;;;;;;;-6.88;84.76;98131.88;109579;1251;72719;-75
2023/03/09 02:19:01;;;;;;;15.00;4.60;;;;;;;-6.90;84.71;98137.64;109428;1250;57039;-74
2023/03/09 02:21:54;;;;;;;16.20;5.70;;;;;;;-6.93;84.62;98134.66;108927;1251;1002360;-74
2023/03/09 02:24:51;;;;;;;15.60;5.40;;;;;;;-6.95;84.67;98134.22;109666;1251;71902;-72
2023/03/09 02:27:37;;;;;;;14.50;5.20;;;;;;;-6.93;84.74;98132.25;109703;1250;67791;-72
2023/03/09 02:30:30;;;;;;;12.60;4.80;;;;;;;-6.92;84.40;98131.02;109448;1251;71249;-73
2023/03/09 02:33:27;;;;;;;18.10;5.80;;;;;;;-6.91;84.40;98134.42;109633;1251;57217;-72
2023/03/09 02:36:14;;;;;;;17.00;5.90;;;;;;;-6.95;84.25;98125.76;109699;1251;60099;-73
2023/03/09 02:39:16;;;;;;;19.30;7.20;;;;;;;-6.87;84.39;98129.94;109695;1251;70913;-73
2023/03/09 02:42:05;;;;;;;66.90;20.80;;;;;;;-6.79;84.17;98134.83;109476;1251;67761;-74
2023/03/09 02:44:52;;;;;;;106.20;31.70;;;;;;;-6.77;84.31;98134.05;108867;1251;1002210;-74
2023/03/09 02:47:39;;;;;;;120.80;35.10;;;;;;;-6.67;85.08;98133.52;109414;1251;57116;-74
2023/03/09 02:50:27;;;;;;;97.10;28.40;;;;;;;-6.58;84.44;98128.00;109717;1251;60229;-74
2023/03/09 02:53:14;;;;;;;35.10;12.60;;;;;;;-6.50;84.53;98131.83;108790;1251;1002336;-74
2023/03/09 02:56:01;;;;;;;42.10;14.10;;;;;;;-6.46;83.97;98135.80;108911;1251;1002671;-74
2023/03/09 02:58:50;;;;;;;43.70;14.60;;;;;;;-6.47;83.48;98137.75;108876;1251;1002644;-74
2023/03/09 03:01:37;;;;;;;38.80;12.60;;;;;;;-6.53;82.89;98136.09;108920;1251;1002582;-73
2023/03/09 03:04:24;;;;;;;62.40;17.30;;;;;;;-6.60;82.50;98133.43;109711;1251;60465;-73
2023/03/09 03:07:11;;;;;;;73.10;22.40;;;;;;;-6.69;82.65;98145.46;108918;1251;1002920;-75
2023/03/09 03:09:57;;;;;;;84.30;26.80;;;;;;;-6.74;82.60;98145.52;109723;1251;67662;-72
2023/03/09 03:12:44;;;;;;;193.60;55.40;;;;;;;-6.80;82.67;98144.21;109647;1251;72516;-72
2023/03/09 03:15:31;;;;;;;177.60;50.60;;;;;;;-6.88;83.02;98146.55;109538;1251;57870;-73
2023/03/09 03:18:18;;;;;;;150.30;45.40;;;;;;;-6.95;82.75;98144.58;109732;1251;61259;-72
2023/03/09 03:21:04;;;;;;;88.60;29.10;;;;;;;-7.02;82.65;98146.04;108837;1250;1002445;-73
2023/03/09 03:23:52;;;;;;;45.30;14.70;;;;;;;-7.05;83.63;98150.29;109580;1251;66616;-72
2023/03/09 03:26:38;;;;;;;38.60;13.80;;;;;;;-7.05;83.41;98149.23;109550;1250;71372;-73
2023/03/09 03:29:28;;;;;;;40.10;13.70;;;;;;;-7.03;83.46;98151.91;109639;1256;57643;-74
2023/03/09 03:32:15;;;;;;;28.10;10.00;;;;;;;-6.97;83.55;98155.16;109656;1251;60221;-75
2023/03/09 03:35:02;;;;;;;22.80;8.00;;;;;;;-6.89;84.07;98158.65;109619;1251;72559;-73
2023/03/09 03:37:49;;;;;;;23.20;8.10;;;;;;;-6.79;83.65;98162.60;109575;1251;67939;-73
2023/03/09 03:40:36;;;;;;;23.00;8.00;;;;;;;-6.69;83.45;98165.16;109607;1251;73525;-73
2023/03/09 03:43:25;;;;;;;16.30;6.20;;;;;;;-6.59;83.11;98166.49;109446;1251;56861;-73
2023/03/09 03:46:11;;;;;;;13.30;4.80;;;;;;;-6.53;82.61;98174.54;109555;1251;60220;-73
2023/03/09 03:48:58;;;;;;;16.70;4.60;;;;;;;-6.48;82.12;98170.92;109683;1251;72130;-73
2023/03/09 03:51:45;;;;;;;11.90;4.10;;;;;;;-6.51;82.07;98167.57;108905;1250;1002737;-72
2023/03/09 03:54:32;;;;;;;14.10;4.40;;;;;;;-6.48;81.74;98167.12;109531;1251;73409;-73
2023/03/09 03:57:22;;;;;;;13.10;4.50;;;;;;;-6.51;81.37;98172.21;108866;1251;1002198;-72
2023/03/09 04:00:10;;;;;;;13.40;5.30;;;;;;;-6.56;81.09;98171.89;108901;1251;1002973;-74
2023/03/09 04:02:58;;;;;;;13.70;4.80;;;;;;;-6.62;80.98;98171.27;109732;1251;71324;-72
2023/03/09 04:05:53;;;;;;;28.90;7.30;;;;;;;-6.75;80.95;98169.02;109601;1251;67612;-73
2023/03/09 04:08:40;;;;;;;26.70;7.80;;;;;;;-6.83;81.12;98165.33;109193;1255;72436;-74
2023/03/09 04:11:27;;;;;;;33.00;8.40;;;;;;;-6.86;81.06;98173.39;109314;1256;57758;-73
2023/03/09 04:14:14;;;;;;;41.60;11.10;;;;;;;-6.92;81.46;98175.66;108452;1256;1002703;-73
2023/03/09 04:17:01;;;;;;;31.50;8.50;;;;;;;-6.96;81.40;98177.70;109292;1255;73104;-75
2023/03/09 04:19:49;;;;;;;27.00;8.40;;;;;;;-6.97;81.44;98181.88;108371;1255;1002862;-76
2023/03/09 04:22:37;;;;;;;26.20;6.00;;;;;;;-6.95;82.01;98179.23;109184;1256;72441;-74
2023/03/09 04:25:23;;;;;;;18.40;5.40;;;;;;;-6.89;82.26;98179.20;109014;1255;57610;-73
2023/03/09 04:28:10;;;;;;;16.50;5.30;;;;;;;-6.82;82.23;98177.39;109175;1257;60147;-72
2023/03/09 04:31:01;;;;;;;27.50;6.70;;;;;;;-6.74;82.37;98172.60;109171;1255;72174;-75
2023/03/09 04:33:49;;;;;;;25.90;6.60;;;;;;;-6.67;81.86;98176.45;109152;1256;67586;-72
2023/03/09 04:36:38;;;;;;;22.10;5.10;;;;;;;-6.57;81.73;98178.16;109141;1256;73432;-75
2023/03/09 04:39:24;;;;;;;25.20;6.20;;;;;;;-6.50;81.00;98177.38;109286;1251;56998;-74
2023/03/09 04:42:11;;;;;;;20.90;5.80;;;;;;;-6.46;80.81;98179.31;109653;1256;60270;-71
2023/03/09 04:44:58;;;;;;;21.20;5.80;;;;;;;-6.41;80.86;98177.70;109520;1256;70787;-73
2023/03/09 04:47:45;;;;;;;29.40;7.20;;;;;;;-6.40;80.47;98175.27;109671;1251;69216;-74
2023/03/09 04:50:32;;;;;;;18.30;4.80;;;;;;;-6.39;80.40;98171.09;109678;1251;72687;-75
2023/03/09 04:53:21;;;;;;;20.00;4.40;;;;;;;-6.43;79.71;98167.27;108765;1251;1002355;-75
2023/03/09 04:56:09;;;;;;;17.80;4.50;;;;;;;-6.47;79.81;98165.36;109574;1251;60158;-73
2023/03/09 04:59:02;;;;;;;16.50;4.50;;;;;;;-6.54;79.89;98169.77;109651;1250;70969;-74
2023/03/09 05:01:49;;;;;;;19.70;4.70;;;;;;;-6.60;79.79;98170.15;109575;1251;67781;-75
2023/03/09 05:04:41;;;;;;;18.00;5.00;;;;;;;-6.68;79.57;98167.16;109647;1251;71228;-73
2023/03/09 05:07:27;;;;;;;16.80;4.70;;;;;;;-6.75;79.71;98167.79;109566;1251;57975;-72
2023/03/09 05:10:16;;;;;;;17.70;4.20;;;;;;;-6.81;79.80;98170.80;109819;1251;58913;-73
2023/03/09 05:13:05;;;;;;;17.20;4.50;;;;;;;-6.88;80.00;98172.74;109018;1250;1003059;-73
2023/03/09 05:15:52;;;;;;;24.70;6.80;;;;;;;-6.95;80.09;98174.57;109795;1251;67646;-75
2023/03/09 05:18:39;;;;;;;17.40;5.40;;;;;;;-6.92;80.32;98180.84;109657;1251;71342;-74
2023/03/09 05:21:26;;;;;;;25.90;5.40;;;;;;;-6.90;80.23;98181.29;109626;1251;58626;-71
2023/03/09 05:24:13;;;;;;;18.20;4.90;;;;;;;-6.87;80.63;98181.67;109619;1251;57812;-74
2023/03/09 05:27:00;;;;;;;17.00;4.60;;;;;;;-6.79;80.98;98181.73;109365;1253;73242;-73
2023/03/09 05:29:52;;;;;;;21.10;4.40;;;;;;;-6.68;80.64;98178.23;109592;1251;68775;-74
2023/03/09 05:32:38;;;;;;;15.90;4.70;;;;;;;-6.55;80.96;98178.06;109594;1251;71245;-74
2023/03/09 05:35:26;;;;;;;18.30;4.50;;;;;;;-6.40;80.61;98176.46;109609;1250;57358;-75
2023/03/09 05:38:13;;;;;;;20.10;4.80;;;;;;;-6.26;80.27;98174.91;109649;1251;59097;-72
2023/03/09 05:41:05;;;;;;;30.80;7.00;;;;;;;-6.13;79.84;98173.88;109475;1251;71992;-74
2023/03/09 05:43:52;;;;;;;23.90;6.40;;;;;;;-5.99;79.69;98176.90;109477;1251;67940;-73
2023/03/09 05:46:39;;;;;;;24.60;6.80;;;;;;;-5.86;79.47;98177.23;109660;1251;71195;-74
2023/03/09 05:49:30;;;;;;;19.90;6.00;;;;;;;-5.75;78.82;98183.52;108937;1250;1002864;-73
2023/03/09 05:52:17;;;;;;;18.20;6.00;;;;;;;-5.66;78.83;98181.77;109614;1251;61479;-74
2023/03/09 05:55:05;;;;;;;12.40;4.20;;;;;;;-5.56;78.97;98180.48;108859;1251;1002397;-74
2023/03/09 05:57:53;;;;;;;15.80;5.10;;;;;;;-5.43;78.76;98185.14;109645;1251;68144;-73
2023/03/09 06:00:40;;;;;;;12.20;4.40;;;;;;;-5.32;78.45;98186.55;108840;1251;1002515;-70
2023/03/09 06:03:28;;;;;;;15.30;3.90;;;;;;;-5.20;78.57;98189.51;108865;1251;1002448;-75
2023/03/09 06:06:17;;;;;;;15.60;4.30;;;;;;;-5.08;78.07;98195.02;109774;1251;58703;-74
2023/03/09 06:09:05;;;;;;;12.30;3.80;;;;;;;-4.97;78.25;98196.47;108978;1251;1002754;-73
2023/03/09 06:11:52;;;;;;;13.30;3.90;;;;;;;-4.87;77.74;98199.63;109597;1251;67647;-74
2023/03/09 06:14:39;;;;;;;13.90;4.00;;;;;;;-4.73;77.71;98203.72;109390;1251;72834;-72
2023/03/09 06:17:26;;;;;;;18.70;4.70;;;;;;;-4.58;77.95;98192.12;108829;1251;1002357;-74
2023/03/09 06:20:13;;;;;;;12.80;4.50;;;;;;;-4.39;77.90;98195.41;109003;1250;1002964;-72
2023/03/09 06:23:03;;;;;;;17.90;5.00;;;;;;;-4.21;77.45;98197.34;109605;1251;72314;-75
2023/03/09 06:25:52;;;;;;;17.20;4.40;;;;;;;-4.01;77.56;98202.30;109678;1251;67849;-75
2023/03/09 06:28:40;;;;;;;15.50;4.70;;;;;;;-3.82;77.01;98204.80;109613;1251;70778;-75
2023/03/09 06:31:27;;;;;;;16.20;4.50;;;;;;;-3.63;76.48;98206.70;109607;1251;57916;-75
2023/03/09 06:34:14;;;;;;;14.50;3.80;;;;;;;-3.48;76.15;98202.64;109673;1251;58776;-73
2023/03/09 06:37:01;;;;;;;19.60;5.20;;;;;;;-3.35;75.95;98201.45;108888;1251;1002319;-76
2023/03/09 06:39:48;;;;;;;15.20;5.30;;;;;;;-3.20;75.45;98206.63;108865;1251;1002212;-79
2023/03/09 06:42:35;;;;;;;14.70;4.50;;;;;;;-3.07;75.32;98208.17;108944;1250;1002973;-75
2023/03/09 06:45:24;;;;;;;20.30;5.80;;;;;;;-2.92;75.14;98212.11;109624;1251;56938;-73
2023/03/09 06:48:10;;;;;;;14.60;5.20;;;;;;;-2.75;75.12;98216.98;108614;1251;1002310;-75
2023/03/09 06:50:58;;;;;;;13.20;4.90;;;;;;;-2.60;74.78;98211.27;109554;1250;72383;-75
2023/03/09 06:53:45;;;;;;;15.60;4.80;;;;;;;-2.44;74.57;98215.28;109626;1250;66345;-74
2023/03/09 06:56:33;;;;;;;15.20;5.10;;;;;;;-2.27;74.37;98216.30;109606;1253;71048;-78
2023/03/09 06:59:20;;;;;;;16.00;6.20;;;;;;;-2.10;74.12;98219.90;108827;1250;1002674;-72
2023/03/09 07:02:11;;;;;;;17.60;7.50;;;;;;;-1.93;73.47;98220.69;108852;1251;1002882;-74
2023/03/09 07:04:58;;;;;;;21.00;7.50;;;;;;;-1.73;73.04;98225.13;108764;1251;1002906;-75
2023/03/09 07:07:44;;;;;;;19.20;8.60;;;;;;;-1.54;72.70;98235.22;109738;1251;66642;-73
2023/03/09 07:10:31;;;;;;;18.70;7.90;;;;;;;-1.31;72.57;98232.15;109646;1251;72573;-72
2023/03/09 07:13:17;;;;;;;19.00;7.40;;;;;;;-1.05;71.85;98231.65;109691;1251;57075;-72
2023/03/09 07:16:05;;;;;;;18.30;6.50;;;;;;;-0.76;70.75;98230.66;109029;1251;1002027;-74
2023/03/09 07:18:52;;;;;;;14.60;6.30;;;;;;;-0.44;71.12;98234.95;109667;1251;72065;-72
2023/03/09 07:21:39;;;;;;;12.40;5.20;;;;;;;-0.03;69.13;98230.65;109663;1250;66604;-72
2023/03/09 07:24:25;;;;;;;14.50;5.60;;;;;;;0.23;66.89;98228.35;109665;1250;72858;-74
2023/03/09 07:27:12;;;;;;;12.20;4.60;;;;;;;0.46;65.72;98232.92;109514;1251;57327;-74
2023/03/09 07:29:58;;;;;;;10.00;3.50;;;;;;;0.88;64.78;98238.06;108947;1250;1002164;-73
2023/03/09 07:32:45;;;;;;;10.40;3.50;;;;;;;1.70;64.50;98235.91;108902;1250;1002794;-76
2023/03/09 07:35:33;;;;;;;9.20;3.60;;;;;;;2.59;62.11;98238.48;109676;1251;66620;-76
2023/03/09 07:38:20;;;;;;;10.20;3.40;;;;;;;3.13;60.02;98241.12;109662;1251;71188;-74
2023/03/09 07:41:06;;;;;;;10.70;3.40;;;;;;;3.71;58.07;98242.80;109666;1251;56785;-75
2023/03/09 07:43:53;;;;;;;9.80;3.70;;;;;;;4.26;54.99;98242.70;109503;1251;58731;-75
2023/03/09 07:46:44;;;;;;;8.30;3.00;;;;;;;4.67;53.15;98248.48;109583;1251;72057;-74
2023/03/09 07:49:31;;;;;;;10.40;3.10;;;;;;;4.91;51.79;98250.77;109689;1250;68654;-74
2023/03/09 07:52:18;;;;;;;10.70;3.30;;;;;;;5.13;50.56;98252.05;109680;1251;71023;-75
2023/03/09 07:55:07;;;;;;;9.40;3.30;;;;;;;5.27;48.09;98251.28;109630;1251;56963;-74
2023/03/09 07:57:54;;;;;;;10.80;3.00;;;;;;;5.19;48.18;98256.53;109642;1251;60123;-74
2023/03/09 08:00:40;;;;;;;9.80;3.20;;;;;;;5.12;47.40;98259.02;109768;1251;73276;-75
2023/03/09 08:03:28;;;;;;;9.20;3.30;;;;;;;5.43;46.66;98259.08;109756;1250;66525;-77
2023/03/09 08:06:16;;;;;;;11.50;2.90;;;;;;;5.66;46.14;98260.64;109398;1254;72742;-76
2023/03/09 08:09:03;;;;;;;10.70;2.80;;;;;;;5.87;45.14;98256.30;109600;1251;57029;-74
2023/03/09 08:11:53;;;;;;;11.90;3.10;;;;;;;6.16;44.91;98258.23;109851;1251;59973;-77
2023/03/09 08:14:40;;;;;;;10.50;2.90;;;;;;;6.28;44.21;98256.19;109813;1251;72002;-75
2023/03/09 08:17:28;;;;;;;9.10;3.00;;;;;;;6.08;43.55;98258.42;109770;1250;66709;-76
2023/03/09 08:20:16;;;;;;;9.60;3.20;;;;;;;5.91;43.08;98259.89;109762;1250;72677;-77
2023/03/09 08:23:03;;;;;;;9.50;3.20;;;;;;;5.91;42.72;98263.95;109666;1250;57134;-75
2023/03/09 08:25:54;;;;;;;9.80;3.10;;;;;;;6.05;40.87;98258.20;109601;1251;60910;-74
2023/03/09 08:28:42;;;;;;;11.20;3.00;;;;;;;6.37;40.56;98257.46;109787;1250;72511;-75
2023/03/09 08:31:29;;;;;;;7.60;2.00;;;;;;;6.92;38.92;98254.15;109543;1251;68053;-73
2023/03/09 08:34:19;;;;;;;5.80;1.40;;;;;;;7.43;36.56;98254.37;109466;1251;72591;-74
2023/03/09 08:37:06;;;;;;;6.00;1.40;;;;;;;8.20;35.37;98250.84;109644;1251;57121;-75
2023/03/09 08:39:52;;;;;;;8.80;1.70;;;;;;;9.08;33.87;98250.34;109664;1251;60143;-74
2023/03/09 08:42:40;;;;;;;6.60;1.20;;;;;;;10.25;32.60;98247.45;109476;1253;71839;-75
2023/03/09 08:45:26;;;;;;;8.60;1.30;;;;;;;11.32;30.41;98244.74;109590;1251;67181;-73
2023/03/09 08:48:13;;;;;;;9.20;1.20;;;;;;;12.04;28.56;98245.33;109723;1251;72544;-74
2023/03/09 08:51:05;;;;;;;6.10;1.60;;;;;;;13.07;27.79;98245.35;109697;1251;57986;-69
2023/03/09 08:53:53;;;;;;;7.30;1.20;;;;;;;13.09;27.68;98247.80;109588;1250;61769;-69
2023/03/09 08:56:39;;;;;;;8.50;1.50;;;;;;;12.63;27.82;98249.16;109629;1251;73073;-70
2023/03/09 08:59:26;;;;;;;9.30;1.90;;;;;;;12.43;28.12;98253.39;109708;1251;68428;-69
2023/03/09 09:02:14;;;;;;;6.30;1.00;;;;;;;12.83;27.16;98255.15;109597;1251;72514;-70
2023/03/09 09:05:01;;;;;;;7.20;1.40;;;;;;;13.03;26.42;98251.35;109697;1250;58745;-66
2023/03/09 09:07:48;;;;;;;4.30;1.10;;;;;;;12.99;26.31;98252.52;109706;1251;61758;-69
2023/03/09 09:10:42;;;;;;;4.70;1.10;;;;;;;13.00;26.14;98253.89;109769;1251;72410;-72
2023/03/09 09:13:29;;;;;;;6.80;2.20;;;;;;;12.81;25.97;98260.70;109752;1251;67887;-68
2023/03/09 09:16:16;;;;;;;4.90;1.00;;;;;;;12.48;25.52;98264.41;109601;1251;72380;-75
2023/03/09 09:19:02;;;;;;;5.60;1.10;;;;;;;12.13;26.17;98265.31;108728;1251;1002380;-76
2023/03/09 09:21:51;;;;;;;6.10;0.80;;;;;;;11.76;25.66;98268.91;109732;1251;59197;-73
2023/03/09 09:24:39;;;;;;;4.60;0.80;;;;;;;11.22;26.33;98272.83;109728;1251;72115;-73
2023/03/09 09:27:26;;;;;;;7.20;1.10;;;;;;;11.00;27.23;98269.48;109653;1251;68742;-75
2023/03/09 09:30:14;;;;;;;6.80;1.30;;;;;;;10.76;28.29;98276.11;109662;1251;71237;-76
2023/03/09 09:33:00;;;;;;;6.80;1.30;;;;;;;10.65;29.07;98282.85;109637;1251;57893;-75
2023/03/09 09:35:55;;;;;;;5.20;1.30;;;;;;;10.46;29.43;98287.30;109700;1250;59105;-74
2023/03/09 09:38:42;;;;;;;6.90;1.60;;;;;;;10.48;29.63;98292.39;109666;1251;70863;-74
2023/03/09 09:41:50;;;;;;;6.70;1.60;;;;;;;10.50;29.48;98294.66;109522;1251;67742;-74
2023/03/09 09:44:44;;;;;;;7.30;1.70;;;;;;;10.37;29.32;98300.81;109579;1251;70703;-78
2023/03/09 09:47:32;;;;;;;7.60;1.70;;;;;;;10.34;28.78;98305.22;109606;1251;57775;-74
2023/03/09 09:50:21;;;;;;;4.50;1.20;;;;;;;10.44;28.46;98306.16;109601;1251;60154;-73
2023/03/09 09:53:35;;;;;;;8.00;1.30;;;;;;;10.81;28.40;98306.90;109780;1250;72044;-74
2023/03/09 09:56:33;;;;;;;5.60;1.30;;;;;;;10.78;27.39;98308.96;109587;1251;67146;-74
2023/03/09 09:59:32;;;;;;;6.00;1.20;;;;;;;10.50;27.72;98307.95;109658;1251;72739;-73
2023/03/09 10:02:39;;;;;;;6.50;1.30;;;;;;;10.07;29.06;98314.03;109487;1251;57002;-73
2023/03/09 10:05:44;;;;;;;6.80;2.00;;;;;;;9.78;29.44;98318.95;109677;1251;60342;-73
2023/03/09 10:09:13;;;;;;;6.70;1.70;;;;;;;9.70;29.75;98325.95;109718;1251;72187;-72
2023/03/09 10:12:08;;;;;;;5.10;1.30;;;;;;;9.30;29.79;98329.48;109441;1251;67634;-76
2023/03/09 10:15:28;;;;;;;7.90;1.60;;;;;;;9.40;30.66;98331.92;109690;1251;72513;-74
2023/03/09 10:18:24;;;;;;;5.40;1.40;;;;;;;10.03;29.45;98331.61;109693;1251;56985;-73
2023/03/09 10:21:48;;;;;;;7.60;1.60;;;;;;;10.47;29.38;98329.02;109758;1251;60187;-73
2023/03/09 10:24:50;;;;;;;7.60;1.90;;;;;;;10.76;29.09;98328.38;109661;1251;72087;-74
2023/03/09 10:28:02;;;;;;;5.70;1.50;;;;;;;10.95;28.56;98329.90;109777;1250;67622;-73
2023/03/09 10:30:58;;;;;;;7.00;1.20;;;;;;;11.07;27.95;98331.22;109762;1250;71242;-74
2023/03/09 10:33:53;;;;;;;7.30;1.70;;;;;;;10.93;29.16;98335.06;109606;1253;56979;-73
2023/03/09 10:37:04;;;;;;;6.20;1.60;;;;;;;11.63;28.24;98336.40;109643;1251;60421;-75
2023/03/09 10:39:50;;;;;;;7.40;1.70;;;;;;;11.51;28.33;98334.78;109627;1253;70735;-75
2023/03/09 10:42:37;;;;;;;8.80;2.00;;;;;;;11.26;28.58;98337.75;109790;1250;68809;-73
2023/03/09 10:45:29;;;;;;;5.80;1.50;;;;;;;11.96;28.37;98343.29;109523;1251;73513;-73
2023/03/09 10:48:25;;;;;;;7.70;1.90;;;;;;;12.03;28.18;98340.56;109281;1251;57815;-73
2023/03/09 10:51:20;;;;;;;10.60;1.80;;;;;;;11.96;28.01;98340.45;109573;1251;60384;-74
2023/03/09 10:54:17;;;;;;;7.20;1.30;;;;;;;12.80;27.46;98343.54;109654;1250;72107;-74
2023/03/09 10:57:27;;;;;;;5.60;1.10;;;;;;;13.68;25.39;98342.63;109640;1251;68698;-73
2023/03/09 11:00:14;;;;;;;5.40;1.20;;;;;;;14.06;24.48;98342.27;109713;1251;72518;-75
2023/03/09 11:03:02;;;;;;;6.40;1.30;;;;;;;15.01;24.43;98337.60;109722;1251;57585;-74
2023/03/09 11:05:49;;;;;;;5.40;1.40;;;;;;;15.49;23.67;98328.79;109748;1251;60014;-74
2023/03/09 11:08:36;;;;;;;7.20;2.30;;;;;;;16.29;23.24;98324.98;109658;1251;72060;-76
2023/03/09 11:11:49;;;;;;;7.30;2.20;;;;;;;16.81;22.59;98325.41;109475;1254;68004;-72
2023/03/09 11:14:49;;;;;;;6.40;1.50;;;;;;;17.40;21.96;98322.54;109501;1253;70920;-74
2023/03/09 11:17:41;;;;;;;7.40;1.50;;;;;;;17.91;21.40;98330.68;109425;1253;57029;-73
2023/03/09 11:20:30;;;;;;;5.30;1.20;;;;;;;18.15;20.91;98336.41;109558;1253;58868;-73
2023/03/09 11:23:34;;;;;;;5.90;1.40;;;;;;;18.54;20.82;98336.13;109522;1254;71980;-74
2023/03/09 11:26:25;;;;;;;4.80;1.00;;;;;;;18.78;20.04;98339.77;109685;1253;66591;-74
2023/03/09 11:30:02;;;;;;;5.20;1.00;;;;;;;18.44;20.42;98342.11;109459;1254;72709;-74
2023/03/09 11:32:53;;;;;;;4.10;1.10;;;;;;;16.87;21.12;98340.70;108766;1262;57057;-74
2023/03/09 11:35:52;;;;;;;5.40;1.20;;;;;;;14.72;22.71;98343.40;108777;1262;58635;-75
2023/03/09 11:38:43;;;;;;;5.00;1.20;;;;;;;13.05;24.48;98349.30;108811;1262;72140;-74
2023/03/09 11:41:34;;;;;;;6.10;1.10;;;;;;;11.12;26.52;98347.36;108703;1262;67805;-75
2023/03/09 11:44:50;;;;;;;9.30;1.20;;;;;;;10.03;28.07;98356.43;108959;1259;71091;-74
2023/03/09 11:47:55;;;;;;;7.30;1.40;;;;;;;9.19;29.73;98361.98;109005;1260;56894;-75
2023/03/09 11:51:25;;;;;;;5.40;1.30;;;;;;;8.79;30.85;98364.66;106679;1259;60682;-76
2023/03/09 11:54:29;;;;;;;8.70;1.20;;;;;;;8.57;31.51;98366.44;108949;1259;72313;-74
2023/03/09 11:57:19;;;;;;;7.40;1.60;;;;;;;8.51;32.07;98369.43;108989;1259;69004;-76
2023/03/09 12:00:15;;;;;;;7.30;1.30;;;;;;;8.45;31.42;98368.64;108979;1259;73753;-75
2023/03/09 12:03:15;;;;;;;5.50;1.30;;;;;;;8.15;31.98;98365.61;109216;1254;57083;-75
2023/03/09 12:06:18;;;;;;;8.10;1.80;;;;;;;7.83;32.63;98359.39;109712;1250;60198;-75
2023/03/09 12:09:17;;;;;;;7.80;1.30;;;;;;;7.32;32.46;98369.70;109594;1250;70981;-76
2023/03/09 12:12:32;;;;;;;4.80;1.10;;;;;;;6.69;33.50;98371.65;108894;1250;1002276;-73
2023/03/09 12:15:34;;;;;;;6.30;1.50;;;;;;;6.17;34.31;98377.02;109512;1251;70409;-76
2023/03/09 12:18:29;;;;;;;5.80;1.30;;;;;;;5.83;35.20;98381.31;109743;1250;57068;-76
2023/03/09 12:21:15;;;;;;;5.60;1.10;;;;;;;5.47;35.28;98380.92;109600;1250;61201;-75
2023/03/09 12:24:19;;;;;;;8.40;1.50;;;;;;;5.21;36.27;98383.98;109753;1250;73252;-74
2023/03/09 12:27:22;;;;;;;5.70;1.30;;;;;;;4.93;36.95;98385.04;109649;1251;65563;-74
2023/03/09 12:30:20;;;;;;;8.50;1.40;;;;;;;4.63;37.07;98388.31;109718;1250;73088;-74
2023/03/09 12:33:10;;;;;;;6.60;1.60;;;;;;;4.48;37.54;98397.40;109683;1250;57036;-72
2023/03/09 12:35:58;;;;;;;5.90;1.60;;;;;;;4.36;37.20;98397.84;109464;1251;61124;-77
2023/03/09 12:38:45;;;;;;;5.20;1.30;;;;;;;4.35;36.75;98394.02;109589;1251;72093;-75
2023/03/09 12:41:59;;;;;;;5.50;1.40;;;;;;;4.48;37.19;98399.53;109679;1250;66239;-73
2023/03/09 12:44:45;;;;;;;9.40;1.30;;;;;;;4.51;36.98;98405.80;109664;1251;71499;-73
2023/03/09 12:47:58;;;;;;;8.00;1.40;;;;;;;4.42;37.19;98407.86;109760;1250;57216;-74
2023/03/09 12:50:45;;;;;;;4.70;1.30;;;;;;;4.40;37.82;98402.23;109757;1250;58719;-73
2023/03/09 12:53:33;;;;;;;5.90;1.50;;;;;;;4.47;38.19;98403.10;109719;1250;72188;-75
2023/03/09 12:56:20;;;;;;;6.10;1.50;;;;;;;4.54;38.07;98406.27;108998;1250;1002363;-75
2023/03/09 12:59:09;;;;;;;5.90;1.40;;;;;;;4.61;38.11;98405.67;108827;1251;1003106;-74
2023/03/09 13:01:56;;;;;;;6.90;1.70;;;;;;;4.69;38.22;98406.25;109730;1250;56842;-74
2023/03/09 13:05:25;;;;;;;9.40;2.00;;;;;;;4.72;38.63;98410.95;109652;1251;61363;-74